Time;durP1;ratioP1;P1;durP2;ratioP2;P2;SDS_P1;SDS_P2;PMS_P1;PMS_P2;Temp;Humidity;BMP_temperature;BMP_pressure;BME280_temperature;BME280_humidity;BME280_pressure;Samples;Min_cycle;Max_cycle;Signal;HPM_P1;HPM_P2
2023/05/22 07:01:55;;;;;;;1.50;0.73;;;16.40;99.90;20.10;101433.00;;;;6309176;22;20679;-73
2023/05/22 07:04:59;;;;;;;1.03;0.97;;;16.60;99.90;20.10;101433.00;;;;6256884;22;20235;-71
2023/05/22 07:07:25;;;;;;;0.20;0.20;;;16.70;99.90;20.40;101438.00;;;;6281584;22;20522;-73
2023/05/22 07:09:51;;;;;;;0.30;0.30;;;16.80;99.90;20.90;101395.00;;;;6282168;22;20186;-73
2023/05/22 07:13:01;;;;;;;0.30;0.30;;;16.90;99.90;20.30;101445.00;;;;6282220;22;20204;-73
2023/05/22 07:15:52;;;;;;;0.43;0.43;;;16.80;99.90;19.60;101397.00;;;;6259632;22;20159;-73
2023/05/22 07:18:18;;;;;;;1.60;1.50;;;16.70;99.90;20.20;101421.00;;;;6281900;22;20162;-73
2023/05/22 07:21:22;;;;;;;0.50;0.50;;;16.70;99.90;20.50;101406.00;;;;6281999;22;20142;-73
2023/05/22 07:23:49;;;;;;;0.50;0.50;;;16.80;99.90;20.40;101446.00;;;;6262393;22;20182;-73
2023/05/22 07:26:45;;;;;;;2.53;0.77;;;16.80;99.90;20.20;101440.00;;;;6256586;22;20670;-72
2023/05/22 07:29:12;;;;;;;6.80;5.37;;;16.80;99.90;20.50;101440.00;;;;6281884;22;20200;-73
2023/05/22 07:31:39;;;;;;;2.33;0.60;;;16.90;99.90;19.80;101433.00;;;;6256550;22;20159;-72
2023/05/22 07:34:04;;;;;;;1.00;1.00;;;16.80;99.90;20.20;101455.00;;;;6256218;22;20517;-72
2023/05/22 07:36:31;;;;;;;0.20;0.20;;;16.80;99.90;20.40;101454.00;;;;6256117;22;20174;-73
2023/05/22 07:38:57;;;;;;;0.63;0.63;;;16.90;99.90;20.40;101454.00;;;;6282131;22;20157;-73
2023/05/22 07:41:26;;;;;;;0.53;0.53;;;17.00;99.90;20.00;101424.00;;;;6256149;22;20155;-73
2023/05/22 07:43:52;;;;;;;1.37;1.07;;;16.70;99.90;20.50;101464.00;;;;6281948;22;20202;-73
2023/05/22 07:46:18;;;;;;;3.70;3.33;;;16.90;99.90;20.50;101456.00;;;;6281945;22;20145;-72
2023/05/22 07:48:44;;;;;;;1.77;1.67;;;16.80;99.90;20.10;101468.00;;;;6281957;22;20144;-73
2023/05/22 07:51:12;;;;;;;0.53;0.50;;;16.80;99.90;20.50;101459.00;;;;6281450;22;20208;-73
2023/05/22 07:53:38;;;;;;;0.37;0.37;;;16.90;99.90;20.50;101467.00;;;;6281717;22;20246;-73
2023/05/22 07:56:07;;;;;;;1.33;0.87;;;17.00;99.90;18.90;101451.00;;;;6256221;22;20643;-73
2023/05/22 07:58:33;;;;;;;5.43;4.17;;;16.50;99.90;18.30;101420.00;;;;6281529;22;20156;-73
2023/05/22 08:01:00;;;;;;;2.20;2.10;;;16.00;99.90;18.60;101389.00;;;;6276498;22;20248;-72
2023/05/22 08:03:26;;;;;;;2.43;2.23;;;15.80;99.90;19.50;101454.00;;;;6251206;22;20175;-73
2023/05/22 08:05:53;;;;;;;0.43;0.43;;;16.20;99.90;19.60;101460.00;;;;6275829;22;20150;-73
2023/05/22 08:08:19;;;;;;;0.20;0.20;;;16.40;99.90;20.20;101471.00;;;;6276824;22;20179;-73
2023/05/22 08:10:45;;;;;;;0.20;0.20;;;16.60;99.90;20.30;101435.00;;;;6276470;22;20152;-73
2023/05/22 08:13:11;;;;;;;0.20;0.20;;;16.90;99.90;20.40;101480.00;;;;6276690;22;20191;-73
2023/05/22 08:15:37;;;;;;;0.20;0.20;;;17.10;99.90;20.60;101485.00;;;;6251054;22;20156;-73
2023/05/22 08:18:03;;;;;;;1.80;1.70;;;17.20;99.90;20.70;101486.00;;;;6276736;22;20174;-73
2023/05/22 08:20:29;;;;;;;1.07;1.07;;;17.30;99.90;20.60;101507.00;;;;6277227;22;20520;-73
2023/05/22 08:22:59;;;;;;;0.30;0.30;;;17.30;99.90;20.70;101493.00;;;;6276320;22;20688;-72
2023/05/22 08:25:25;;;;;;;0.80;0.80;;;17.20;99.90;20.60;101451.00;;;;6250951;22;20162;-73
2023/05/22 08:27:51;;;;;;;0.20;0.20;;;17.20;99.90;20.90;101498.00;;;;6277531;22;20592;-73
2023/05/22 08:30:17;;;;;;;0.40;0.40;;;17.30;99.90;21.50;101504.00;;;;6250603;22;20149;-73
2023/05/22 08:32:43;;;;;;;1.37;1.27;;;17.60;99.90;21.20;101502.00;;;;6276215;22;20261;-73
2023/05/22 08:35:13;;;;;;;0.30;0.30;;;17.60;99.90;21.00;101502.00;;;;6277510;22;20148;-73
2023/05/22 08:37:39;;;;;;;0.43;0.43;;;17.60;99.90;21.40;101506.00;;;;6276367;22;20141;-73
2023/05/22 08:40:10;;;;;;;0.20;0.20;;;17.60;99.90;21.30;101500.00;;;;6250550;22;20188;-73
2023/05/22 08:42:36;;;;;;;2.63;2.23;;;17.80;99.90;20.50;101483.00;;;;6250430;22;20239;-73
2023/05/22 08:45:03;;;;;;;4.53;4.23;;;17.50;99.90;20.00;101481.00;;;;6276071;22;20148;-72
2023/05/22 08:47:35;;;;;;;1.30;1.30;;;17.30;99.90;20.80;101490.00;;;;6276048;22;20146;-73
2023/05/22 08:50:02;;;;;;;1.80;1.53;;;17.40;99.90;21.10;101490.00;;;;6250507;22;20156;-73
2023/05/22 08:52:39;;;;;;;1.77;1.67;;;17.60;99.90;21.50;101454.00;;;;6276058;22;20467;-73
2023/05/22 08:55:06;;;;;;;0.20;0.20;;;17.90;99.90;21.70;101486.00;;;;6276121;22;20149;-73
2023/05/22 08:57:33;;;;;;;0.77;0.77;;;18.10;99.90;22.10;101497.00;;;;6275603;22;20575;-73
2023/05/22 08:59:59;;;;;;;2.10;2.00;;;18.30;99.90;21.70;101474.00;;;;6275688;22;20597;-73
2023/05/22 09:02:26;;;;;;;0.20;0.20;;;18.50;99.90;22.30;101480.00;;;;6250284;22;20189;-73
2023/05/22 09:04:53;;;;;;;2.30;2.20;;;18.70;99.90;21.80;101489.00;;;;6275677;22;20154;-73
2023/05/22 09:07:20;;;;;;;0.57;0.57;;;18.60;99.90;22.20;101494.00;;;;6276241;22;20147;-72
2023/05/22 09:09:47;;;;;;;1.23;1.17;;;18.70;99.90;22.30;101453.00;;;;6275865;22;20556;-73
2023/05/22 09:12:13;;;;;;;1.80;1.60;;;18.80;99.90;22.40;101489.00;;;;6275685;22;20151;-73
2023/05/22 09:14:43;;;;;;;5.17;2.17;;;18.80;99.90;22.20;101470.00;;;;6275926;22;20203;-73
2023/05/22 09:17:13;;;;;;;0.30;0.30;;;18.80;99.90;22.40;101480.00;;;;6249814;22;20524;-73
2023/05/22 09:19:46;;;;;;;0.87;0.87;;;18.90;99.90;22.30;101480.00;;;;6249954;22;20246;-73
2023/05/22 09:22:13;;;;;;;1.03;1.03;;;18.90;99.90;22.20;101443.00;;;;6250761;22;20175;-73
2023/05/22 09:24:47;;;;;;;0.83;0.83;;;18.90;99.90;22.70;101491.00;;;;6250363;22;20235;-73
2023/05/22 09:27:13;;;;;;;0.20;0.20;;;19.10;99.90;22.80;101468.00;;;;6250732;22;20187;-73
2023/05/22 09:29:59;;;;;;;0.83;0.80;;;19.30;99.90;22.90;101489.00;;;;6275627;22;20160;-73
2023/05/22 09:32:29;;;;;;;0.80;0.80;;;19.30;99.90;23.00;101485.00;;;;6276775;22;20217;-73
2023/05/22 09:35:03;;;;;;;0.17;0.17;;;19.50;99.90;23.10;101479.00;;;;6250228;22;20181;-73
2023/05/22 09:37:34;;;;;;;0.50;0.50;;;19.60;99.90;23.10;101477.00;;;;6275392;22;20153;-72
2023/05/22 09:40:08;;;;;;;0.23;0.23;;;19.50;99.90;23.20;101444.00;;;;6276863;22;20170;-72
2023/05/22 09:42:34;;;;;;;0.40;0.40;;;19.70;99.90;23.60;101489.00;;;;6250045;22;20214;-73
2023/05/22 09:45:07;;;;;;;0.77;0.77;;;19.70;99.90;22.90;101458.00;;;;6250225;22;20157;-73
2023/05/22 09:47:39;;;;;;;0.53;0.53;;;19.70;99.90;23.40;101490.00;;;;6247786;22;20295;-73
2023/05/22 09:50:09;;;;;;;1.45;0.82;;;19.70;99.90;24.10;101501.00;;;;6275289;22;20224;-73
2023/05/22 09:52:36;;;;;;;0.75;0.75;;;20.10;99.90;23.30;101486.00;;;;6275631;22;20148;-73
2023/05/22 09:55:05;;;;;;;0.30;0.30;;;20.10;99.90;23.90;101494.00;;;;6275440;22;20573;-73
2023/05/22 09:57:44;;;;;;;0.50;0.50;;;20.20;99.90;24.10;101516.00;;;;6249872;22;20163;-73
2023/05/22 10:00:18;;;;;;;3.28;1.63;;;20.40;99.90;23.60;101518.00;;;;6249690;22;20172;-73
2023/05/22 10:02:53;;;;;;;0.50;0.50;;;20.30;99.90;24.30;101523.00;;;;6275007;22;20176;-73
2023/05/22 10:05:20;;;;;;;1.75;1.65;;;20.40;99.90;24.10;101528.00;;;;6250039;22;20227;-73
2023/05/22 10:07:54;;;;;;;0.13;0.13;;;20.50;99.90;24.60;101525.00;;;;6249783;22;20161;-72
2023/05/22 10:10:26;;;;;;;0.20;0.20;;;20.70;99.90;24.50;101486.00;;;;6275133;22;20609;-73
2023/05/22 10:13:01;;;;;;;1.42;1.33;;;20.80;99.90;24.80;101546.00;;;;6275488;22;20164;-73
2023/05/22 10:15:27;;;;;;;1.25;1.25;;;21.00;99.90;24.70;101538.00;;;;6249855;22;20160;-73
2023/05/22 10:17:54;;;;;;;8.15;5.15;;;20.70;99.90;24.30;101559.00;;;;6249352;22;20157;-73
2023/05/22 10:20:21;;;;;;;3.20;0.90;;;20.70;99.90;24.00;101537.00;;;;6249935;22;20219;-73
2023/05/22 10:33:25;;;;;;;21.97;9.20;;;18.30;99.90;19.90;101449.00;;;;5050150;28;20605;-72
2023/05/22 10:36:07;;;;;;;0.20;0.20;;;18.00;99.90;22.20;101475.00;;;;5012977;28;20198;-72
2023/05/22 10:39:06;;;;;;;4.28;3.92;;;18.60;99.90;23.20;101488.00;;;;5024663;28;20266;-72
2023/05/22 10:41:33;;;;;;;0.30;0.30;;;19.30;99.90;23.50;101487.00;;;;5033988;28;20194;-72
2023/05/22 10:44:02;;;;;;;0.15;0.15;;;19.90;99.90;24.20;101484.00;;;;5024593;28;20187;-73
2023/05/22 10:46:35;;;;;;;0.10;0.10;;;20.30;99.90;24.10;101446.00;;;;5026777;28;20187;-72
2023/05/22 10:49:04;;;;;;;0.35;0.35;;;20.40;99.90;23.60;101479.00;;;;5013267;28;20277;-72
2023/05/22 10:51:40;;;;;;;13.25;7.18;;;20.30;99.90;22.50;101487.00;;;;5029302;28;20703;-72
2023/05/22 10:54:06;;;;;;;8.15;3.67;;;20.10;99.90;21.10;101461.00;;;;5028961;28;20179;-72
2023/05/22 10:56:34;;;;;;;8.17;5.63;;;19.00;99.90;20.30;101452.00;;;;5024523;28;20655;-72
2023/05/22 10:59:06;;;;;;;14.45;6.93;;;18.40;99.90;21.60;101484.00;;;;5030132;28;20668;-72
2023/05/22 11:01:36;;;;;;;1.20;1.20;;;18.60;99.90;22.50;101471.00;;;;5009278;28;20689;-72
2023/05/22 11:04:05;;;;;;;0.35;0.35;;;19.00;99.90;24.30;101480.00;;;;4996163;28;20190;-72
2023/05/22 11:07:04;;;;;;;7.20;4.25;;;20.10;99.90;22.90;101473.00;;;;5027299;28;20193;-72
2023/05/22 11:09:42;;;;;;;7.60;4.75;;;20.40;99.90;20.60;101456.00;;;;5023559;28;20187;-72
2023/05/22 11:12:27;;;;;;;4.38;3.97;;;19.10;99.90;20.80;101468.00;;;;5009288;28;20207;-72
2023/05/22 11:15:08;;;;;;;4.72;3.83;;;18.50;99.90;21.90;101480.00;;;;5027113;28;20216;-73
2023/05/22 11:17:50;;;;;;;0.40;0.40;;;19.10;99.90;23.30;101493.00;;;;5008875;28;20188;-72
2023/05/22 11:20:29;;;;;;;6.50;4.55;;;19.90;99.90;21.80;101470.00;;;;5028828;28;20569;-72
2023/05/22 11:23:00;;;;;;;0.10;0.10;;;19.50;99.90;23.70;101481.00;;;;5012172;28;20551;-72
2023/05/22 11:25:28;;;;;;;0.10;0.10;;;20.00;99.90;24.60;101499.00;;;;5011989;28;20183;-72
2023/05/22 11:28:35;;;;;;;1.25;1.23;;;20.70;99.90;25.40;101511.00;;;;5028263;28;20294;-72
2023/05/22 11:31:01;;;;;;;0.13;0.13;;;21.50;99.90;25.80;101519.00;;;;5029978;28;20195;-72
2023/05/22 11:33:27;;;;;;;7.88;5.10;;;21.90;99.90;25.00;101531.00;;;;5052108;28;20192;-73
2023/05/22 11:35:53;;;;;;;1.95;1.85;;;21.80;99.90;22.90;101488.00;;;;5040800;28;20539;-72
2023/05/22 11:38:20;;;;;;;0.90;0.77;;;20.80;99.90;25.00;101503.00;;;;5031505;28;20652;-73
2023/05/22 11:40:51;;;;;;;0.45;0.40;;;21.20;99.90;25.70;101533.00;;;;5041176;28;20192;-72
2023/05/22 11:43:29;;;;;;;1.08;0.85;;;21.80;99.90;25.40;101539.00;;;;5013254;28;20167;-72
2023/05/22 11:46:07;;;;;;;0.85;0.85;;;21.80;99.90;25.70;101532.00;;;;5051047;28;20204;-72
2023/05/22 11:48:37;;;;;;;2.15;1.95;;;22.00;99.90;26.30;101512.00;;;;5038071;28;20190;-73
2023/05/22 11:51:03;;;;;;;7.70;3.40;;;22.40;99.90;26.10;101552.00;;;;5038205;28;20637;-73
2023/05/22 11:53:34;;;;;;;0.20;0.20;;;22.60;99.90;27.10;101560.00;;;;5038004;28;20189;-73
2023/05/22 11:56:04;;;;;;;14.15;1.55;;;23.00;99.90;27.30;101567.00;;;;5037749;28;20182;-73
2023/05/22 11:58:31;;;;;;;5.95;3.10;;;23.50;99.90;26.40;101580.00;;;;5017589;28;20263;-73
2023/05/22 12:01:02;;;;;;;6.70;4.22;;;23.20;99.90;22.00;101544.00;;;;5016869;28;20248;-72
2023/05/22 12:03:29;;;;;;;0.20;0.20;;;21.10;99.90;23.40;101477.00;;;;5034334;28;20194;-72
2023/05/22 12:05:56;;;;;;;0.10;0.10;;;20.80;99.90;25.20;101492.00;;;;5050883;28;20178;-73
2023/05/22 12:08:23;;;;;;;1.40;1.40;;;21.40;99.90;26.10;101509.00;;;;5034228;28;20225;-73
2023/05/22 12:10:54;;;;;;;8.10;5.22;;;22.10;99.90;26.20;101534.00;;;;5034012;28;20179;-73
2023/05/22 12:13:28;;;;;;;4.03;2.70;;;22.50;99.90;26.70;101545.00;;;;5047084;28;20239;-73
2023/05/22 12:16:01;;;;;;;4.45;3.15;;;22.90;99.90;24.10;101552.00;;;;5034285;28;20462;-73
2023/05/22 12:18:36;;;;;;;0.45;0.32;;;22.10;99.90;25.50;101522.00;;;;5031856;28;20554;-73
2023/05/22 12:21:05;;;;;;;11.55;10.35;;;22.00;99.90;26.80;101505.00;;;;5053623;28;20285;-73
2023/05/22 12:23:34;;;;;;;5.57;4.25;;;22.60;99.90;26.10;101536.00;;;;5037189;28;20200;-73
2023/05/22 12:26:08;;;;;;;1.27;1.17;;;22.70;99.90;26.70;101553.00;;;;5044418;28;20618;-73
2023/05/22 12:28:34;;;;;;;0.93;0.93;;;23.00;99.90;26.70;101541.00;;;;5034288;28;20214;-73
2023/05/22 12:31:00;;;;;;;0.38;0.20;;;23.10;99.90;26.00;101565.00;;;;5018411;28;20589;-73
2023/05/22 12:33:59;;;;;;;3.20;2.00;;;22.80;99.90;23.70;101523.00;;;;5014832;28;20186;-72
2023/05/22 12:36:40;;;;;;;0.10;0.10;;;21.70;99.90;25.50;101529.00;;;;5037608;28;20202;-73
2023/05/22 12:39:10;;;;;;;1.27;1.27;;;22.00;99.90;26.40;101540.00;;;;5030820;28;20187;-73
2023/05/22 12:41:37;;;;;;;1.90;1.80;;;22.50;99.90;26.70;101559.00;;;;5027630;28;20178;-73
2023/05/22 12:44:04;;;;;;;0.52;0.52;;;22.90;99.90;24.60;101513.00;;;;5017760;28;20660;-73
2023/05/22 12:46:31;;;;;;;0.10;0.10;;;22.10;99.90;26.00;101520.00;;;;5021013;28;20618;-73
2023/05/22 12:49:02;;;;;;;0.52;0.52;;;22.30;99.90;26.20;101543.00;;;;5011059;28;20187;-73
2023/05/22 12:51:31;;;;;;;0.95;0.95;;;22.50;99.90;26.50;101510.00;;;;5033961;28;20281;-73
2023/05/22 12:53:58;;;;;;;0.77;0.77;;;22.70;99.90;27.10;101523.00;;;;5020198;28;20587;-73
2023/05/22 12:56:25;;;;;;;0.10;0.10;;;23.10;99.90;26.80;101566.00;;;;5032104;28;20186;-73
2023/05/22 12:58:51;;;;;;;1.95;1.45;;;23.10;99.90;26.70;101577.00;;;;5039904;28;20548;-73
2023/05/22 13:01:21;;;;;;;1.00;0.90;;;23.10;99.90;26.90;101535.00;;;;5044958;28;20226;-73
2023/05/22 13:03:47;;;;;;;0.17;0.17;;;22.90;99.90;27.00;101567.00;;;;5033183;28;20187;-73
2023/05/22 13:06:13;;;;;;;0.40;0.40;;;23.00;99.90;26.80;101569.00;;;;5036319;28;20651;-73
2023/05/22 13:08:39;;;;;;;1.02;0.45;;;23.10;99.90;26.70;101580.00;;;;5036468;28;20204;-73
2023/05/22 13:11:05;;;;;;;2.60;2.40;;;22.90;99.90;26.40;101581.00;;;;5019487;28;20186;-73
2023/05/22 13:13:31;;;;;;;0.10;0.10;;;22.90;99.90;26.40;101580.00;;;;5053748;28;20186;-73
2023/05/22 13:16:02;;;;;;;3.15;2.20;;;22.60;99.90;26.30;101572.00;;;;5053905;28;20184;-73
2023/05/22 13:18:28;;;;;;;0.20;0.20;;;22.60;99.90;26.20;101515.00;;;;5036299;28;20182;-74
2023/05/22 13:20:59;;;;;;;1.65;1.65;;;22.50;99.90;26.10;101566.00;;;;5027614;28;20189;-73
2023/05/22 13:23:25;;;;;;;0.88;0.88;;;22.40;99.90;26.40;101587.00;;;;5032815;28;20204;-73
2023/05/22 13:25:51;;;;;;;0.80;0.50;;;22.50;99.90;26.10;101580.00;;;;5028795;28;20185;-73
2023/05/22 13:28:17;;;;;;;2.92;2.22;;;22.40;99.90;25.50;101582.00;;;;5042140;28;20539;-73
2023/05/22 13:30:43;;;;;;;0.10;0.10;;;22.10;99.90;25.80;101580.00;;;;5028080;28;20584;-73
2023/05/22 13:33:11;;;;;;;0.30;0.30;;;22.10;99.90;26.10;101586.00;;;;5035646;28;20235;-73
2023/05/22 13:35:44;;;;;;;7.25;2.72;;;22.30;99.90;25.90;101571.00;;;;5036357;28;20193;-73
2023/05/22 13:38:10;;;;;;;0.20;0.20;;;22.20;99.90;25.10;101526.00;;;;5020055;28;20183;-73
2023/05/22 13:40:36;;;;;;;0.32;0.32;;;21.80;99.90;25.80;101574.00;;;;5025684;28;20608;-73
2023/05/22 13:43:03;;;;;;;1.40;1.40;;;21.80;99.90;25.60;101563.00;;;;5053253;28;20255;-72
2023/05/22 13:45:29;;;;;;;2.45;2.30;;;21.90;99.90;25.50;101577.00;;;;5019162;28;20186;-73
2023/05/22 13:47:56;;;;;;;3.40;2.65;;;21.80;99.90;25.10;101536.00;;;;5036012;28;20235;-73
2023/05/22 13:50:21;;;;;;;0.63;0.63;;;21.70;99.90;25.20;101576.00;;;;5020545;28;20189;-73
2023/05/22 13:52:48;;;;;;;0.20;0.20;;;21.50;99.90;24.90;101558.00;;;;5049605;28;20554;-73
2023/05/22 13:55:14;;;;;;;0.75;0.73;;;21.60;99.90;24.20;101564.00;;;;5018595;28;20189;-73
2023/05/22 13:57:49;;;;;;;0.88;0.88;;;21.20;99.90;24.40;101557.00;;;;5047691;28;20175;-73
2023/05/22 14:00:15;;;;;;;3.50;1.85;;;21.00;99.90;24.30;101550.00;;;;5035707;28;20197;-73
2023/05/22 14:02:45;;;;;;;5.93;2.47;;;21.00;99.90;24.10;101559.00;;;;5035038;28;20248;-73
2023/05/22 14:05:11;;;;;;;1.33;1.33;;;20.90;99.90;24.70;101553.00;;;;5046635;28;20182;-73
2023/05/22 14:11:05;;;;;;;0.45;0.45;;;21.10;99.90;25.00;101574.00;;;;5038349;28;20185;-73
2023/05/22 14:13:35;;;;;;;1.05;0.93;;;21.40;99.90;24.40;101577.00;;;;5038650;28;20325;-73
2023/05/22 14:16:01;;;;;;;0.10;0.10;;;21.20;99.90;24.70;101562.00;;;;5053161;28;20348;-73
2023/05/22 14:19:07;;;;;;;1.08;1.08;;;21.10;99.90;25.40;101584.00;;;;5023603;28;20178;-73
2023/05/22 14:21:41;;;;;;;3.28;1.85;;;21.30;99.90;25.80;101596.00;;;;5027828;28;20190;-73
2023/05/22 14:24:07;;;;;;;2.45;1.35;;;21.80;99.90;24.20;101615.00;;;;5023983;28;20183;-72
2023/05/22 14:26:35;;;;;;;0.75;0.75;;;21.50;99.90;25.30;101589.00;;;;5016695;28;20220;-73
2023/05/22 14:29:04;;;;;;;3.25;2.75;;;21.50;99.90;25.10;101601.00;;;;5022036;28;20221;-73
2023/05/22 14:31:30;;;;;;;0.20;0.20;;;21.60;99.90;24.90;101593.00;;;;5012644;28;20209;-73
2023/05/22 14:33:56;;;;;;;0.73;0.73;;;21.40;99.90;25.30;101570.00;;;;5035289;28;20186;-73
2023/05/22 14:36:45;;;;;;;0.38;0.38;;;21.50;99.90;25.20;101601.00;;;;5035018;28;20182;-73
2023/05/22 14:39:11;;;;;;;0.15;0.15;;;21.50;99.90;25.40;101601.00;;;;5028917;28;20632;-73
2023/05/22 14:41:40;;;;;;;5.15;3.15;;;21.50;99.90;25.20;101598.00;;;;5021941;28;20202;-73
2023/05/22 14:44:23;;;;;;;0.65;0.65;;;21.50;99.90;24.90;101549.00;;;;5017746;28;20179;-73
2023/05/22 14:46:50;;;;;;;4.53;2.50;;;21.20;99.90;24.90;101590.00;;;;5018397;28;20174;-72
2023/05/22 14:49:18;;;;;;;0.20;0.20;;;21.20;99.90;24.90;101590.00;;;;5027740;28;20178;-72
2023/05/22 14:51:47;;;;;;;0.90;0.90;;;21.10;99.90;25.10;101565.00;;;;5014916;28;20203;-72
2023/05/22 14:54:17;;;;;;;0.20;0.20;;;21.20;99.90;25.40;101582.00;;;;5033203;28;20260;-72
2023/05/22 14:57:05;;;;;;;0.38;0.30;;;21.30;99.90;25.50;101589.00;;;;5035299;28;20578;-72
2023/05/22 14:59:32;;;;;;;1.38;1.38;;;21.50;99.90;25.40;101594.00;;;;5020545;28;20218;-72
2023/05/22 15:01:58;;;;;;;0.10;0.10;;;21.60;99.90;25.70;101596.00;;;;5035275;28;20182;-72
2023/05/22 15:04:24;;;;;;;0.35;0.32;;;21.70;99.90;25.00;101583.00;;;;5034929;28;20186;-72
2023/05/22 15:06:50;;;;;;;3.63;3.33;;;21.40;99.90;25.30;101587.00;;;;5052373;28;20178;-72
2023/05/22 15:09:16;;;;;;;8.98;7.68;;;21.50;99.90;25.50;101577.00;;;;5034814;28;20193;-72
2023/05/22 15:11:51;;;;;;;0.63;0.52;;;21.50;99.90;25.70;101595.00;;;;5025822;28;20206;-72
2023/05/22 15:14:17;;;;;;;0.28;0.28;;;21.70;99.90;25.40;101595.00;;;;5024377;28;20186;-72
2023/05/22 15:16:43;;;;;;;1.27;1.27;;;21.60;99.90;25.50;101598.00;;;;5032527;28;20594;-72
2023/05/22 15:19:31;;;;;;;0.10;0.10;;;21.50;99.90;25.50;101596.00;;;;5018251;28;20190;-72
2023/05/22 15:21:57;;;;;;;0.43;0.43;;;21.50;99.90;25.40;101597.00;;;;5017954;28;20255;-72
2023/05/22 15:24:24;;;;;;;1.67;1.58;;;21.50;99.90;25.30;101607.00;;;;5032881;28;20202;-72
2023/05/22 15:26:50;;;;;;;0.20;0.20;;;21.50;99.90;25.40;101605.00;;;;5038657;28;20200;-72
2023/05/22 15:29:17;;;;;;;4.80;2.08;;;21.50;99.90;25.60;101613.00;;;;5038577;28;20640;-72
2023/05/22 15:31:43;;;;;;;2.80;1.55;;;21.70;99.90;25.50;101604.00;;;;5034094;28;20214;-72
2023/05/22 15:34:50;;;;;;;0.43;0.43;;;21.70;99.90;25.40;101599.00;;;;5054252;28;20197;-72
2023/05/22 15:37:16;;;;;;;0.13;0.13;;;21.70;99.90;25.60;101601.00;;;;5025715;28;20257;-72
2023/05/22 15:39:42;;;;;;;1.20;0.95;;;21.60;99.90;25.00;101617.00;;;;5033726;28;20346;-72
2023/05/22 15:42:08;;;;;;;7.22;4.20;;;21.70;99.90;24.40;101589.00;;;;5056032;28;20246;-72
2023/05/22 15:44:34;;;;;;;4.25;1.98;;;21.30;99.90;24.90;101593.00;;;;5052884;28;20194;-72
2023/05/22 15:47:08;;;;;;;0.45;0.45;;;21.20;99.90;24.20;101574.00;;;;5019306;28;20264;-72
2023/05/22 15:49:33;;;;;;;3.10;2.92;;;21.10;99.90;24.90;101530.00;;;;5044820;28;20260;-72
2023/05/22 15:52:01;;;;;;;0.20;0.20;;;21.10;99.90;25.30;101576.00;;;;5037518;28;20210;-72
2023/05/22 15:54:27;;;;;;;1.20;1.20;;;21.30;99.90;24.90;101579.00;;;;5046737;28;20634;-72
2023/05/22 15:56:52;;;;;;;3.63;3.40;;;21.20;99.90;24.00;101550.00;;;;5024438;28;20278;-72
2023/05/22 15:59:24;;;;;;;0.15;0.15;;;21.00;99.90;24.60;101559.00;;;;5033393;28;20206;-72
2023/05/22 16:01:55;;;;;;;0.20;0.20;;;21.00;99.90;24.90;101508.00;;;;5031851;28;20225;-72
2023/05/22 16:04:47;;;;;;;1.05;1.05;;;21.00;99.90;24.70;101561.00;;;;5037514;28;20648;-72
2023/05/22 16:07:19;;;;;;;0.10;0.10;;;21.10;99.90;25.40;101517.00;;;;5032480;28;20229;-72
2023/05/22 16:09:45;;;;;;;0.57;0.57;;;21.30;99.90;25.50;101548.00;;;;5031102;28;20193;-72
2023/05/22 16:12:11;;;;;;;0.20;0.20;;;21.50;99.90;25.00;101567.00;;;;5054960;28;20237;-72
2023/05/22 16:14:37;;;;;;;0.50;0.50;;;21.30;99.90;25.10;101566.00;;;;5044879;28;20221;-72
2023/05/22 16:17:09;;;;;;;0.32;0.32;;;21.30;99.90;25.30;101553.00;;;;5037791;28;20186;-72
2023/05/22 16:19:35;;;;;;;0.10;0.10;;;21.40;99.90;25.20;101569.00;;;;5030026;28;20185;-72
2023/05/22 16:22:01;;;;;;;4.47;1.85;;;21.50;99.90;25.10;101561.00;;;;5043241;28;20537;-72
2023/05/22 16:24:27;;;;;;;0.40;0.40;;;21.40;99.90;23.70;101538.00;;;;5028376;28;20218;-72
2023/05/22 16:26:56;;;;;;;0.98;0.98;;;21.00;99.90;24.70;101541.00;;;;5037227;28;20208;-72
2023/05/22 16:29:23;;;;;;;1.92;1.75;;;21.00;99.90;24.80;101545.00;;;;5037370;28;20190;-71
2023/05/22 16:31:50;;;;;;;13.95;1.85;;;21.20;99.90;24.90;101552.00;;;;5036661;28;20221;-72
2023/05/22 16:34:17;;;;;;;2.97;2.78;;;21.30;99.90;25.00;101548.00;;;;5037134;28;20182;-72
2023/05/22 16:36:43;;;;;;;0.55;0.55;;;21.30;99.90;25.10;101553.00;;;;5028908;28;20202;-72
2023/05/22 16:39:09;;;;;;;0.13;0.13;;;21.40;99.90;24.40;101539.00;;;;5017212;28;20190;-72
2023/05/22 16:41:44;;;;;;;6.15;3.92;;;21.20;99.90;24.50;101509.00;;;;5029842;28;20542;-72
2023/05/22 16:44:10;;;;;;;1.27;1.17;;;21.10;99.90;24.80;101531.00;;;;5044566;28;20182;-72
2023/05/22 16:46:53;;;;;;;0.65;0.65;;;21.20;99.90;25.10;101520.00;;;;5037685;28;20198;-72
2023/05/22 16:50:12;;;;;;;0.20;0.20;;;21.30;99.90;24.90;101537.00;;;;5014100;28;20243;-72
2023/05/22 16:53:15;;;;;;;2.38;1.45;;;21.20;99.90;24.60;101528.00;;;;4999112;28;20203;-72
2023/05/22 16:56:26;;;;;;;1.50;1.33;;;21.20;99.90;24.20;101524.00;;;;5018602;28;20240;-72
2023/05/22 16:59:14;;;;;;;0.40;0.40;;;21.00;99.90;24.50;101504.00;;;;5028649;28;20198;-72
2023/05/22 17:01:58;;;;;;;0.25;0.25;;;20.90;99.90;24.70;101513.00;;;;5042896;28;20205;-72
2023/05/22 17:04:31;;;;;;;0.30;0.30;;;21.00;99.90;24.60;101534.00;;;;5034223;28;20190;-72
2023/05/22 17:07:35;;;;;;;0.98;0.95;;;21.10;99.90;24.60;101530.00;;;;5022046;28;20182;-72
2023/05/22 17:10:01;;;;;;;0.20;0.20;;;21.00;99.90;24.90;101521.00;;;;5034919;28;20659;-72
2023/05/22 17:12:33;;;;;;;1.65;1.55;;;21.10;99.90;24.70;101500.00;;;;5037731;28;20661;-72
2023/05/22 17:15:05;;;;;;;0.10;0.10;;;21.20;99.90;24.10;101530.00;;;;5020111;28;20181;-72
2023/05/22 17:17:34;;;;;;;0.40;0.40;;;21.00;99.90;24.60;101525.00;;;;5031997;28;20264;-72
2023/05/22 17:20:00;;;;;;;0.30;0.30;;;21.10;99.90;24.70;101534.00;;;;5036538;28;20194;-72
2023/05/22 17:22:35;;;;;;;3.05;2.80;;;21.10;99.90;24.40;101534.00;;;;5041997;28;20532;-72
2023/05/22 17:25:01;;;;;;;0.68;0.68;;;21.00;99.90;24.70;101531.00;;;;5036830;28;20280;-72
2023/05/22 17:27:27;;;;;;;0.32;0.32;;;21.00;99.90;24.30;101528.00;;;;5032270;28;20175;-72
2023/05/22 17:30:36;;;;;;;0.28;0.28;;;20.90;99.90;24.90;101529.00;;;;5029523;28;20189;-72
2023/05/22 17:33:25;;;;;;;0.10;0.10;;;21.00;99.90;24.90;101534.00;;;;5025842;28;20272;-72
2023/05/22 17:36:36;;;;;;;2.05;1.95;;;21.10;99.90;24.40;101525.00;;;;5035056;28;20217;-72
2023/05/22 17:39:37;;;;;;;0.30;0.30;;;21.10;99.90;24.80;101508.00;;;;5026215;28;20197;-71
2023/05/22 17:42:04;;;;;;;0.30;0.30;;;21.10;99.90;24.70;101539.00;;;;5035440;28;20206;-72
2023/05/22 17:44:33;;;;;;;1.27;1.27;;;21.10;99.90;25.00;101540.00;;;;5035707;28;20556;-72
2023/05/22 17:46:59;;;;;;;1.35;0.52;;;21.20;99.90;24.70;101509.00;;;;5037636;28;20212;-72
2023/05/22 17:49:26;;;;;;;3.13;2.70;;;21.20;99.90;23.40;101540.00;;;;5039353;28;20266;-72
2023/05/22 17:51:52;;;;;;;0.10;0.10;;;20.90;99.90;23.20;101489.00;;;;5032539;28;20205;-72
2023/05/22 17:54:18;;;;;;;3.65;1.85;;;20.40;99.90;23.00;101546.00;;;;5035588;28;20198;-72
2023/05/22 17:57:09;;;;;;;0.47;0.47;;;20.20;99.90;23.80;101556.00;;;;5053184;28;20225;-72
2023/05/22 17:59:35;;;;;;;1.65;1.55;;;20.20;99.90;23.80;101542.00;;;;5018156;28;20540;-72
2023/05/22 18:02:39;;;;;;;0.40;0.40;;;20.40;99.90;23.70;101549.00;;;;5033873;28;20185;-72
2023/05/22 18:05:06;;;;;;;0.30;0.30;;;20.40;99.90;23.60;101542.00;;;;5017599;28;20194;-72
2023/05/22 18:07:35;;;;;;;0.10;0.10;;;20.30;99.90;23.90;101558.00;;;;5027229;28;20332;-72
2023/05/22 18:10:01;;;;;;;0.63;0.63;;;20.40;99.90;23.80;101557.00;;;;5021344;28;20186;-72
2023/05/22 18:12:27;;;;;;;0.65;0.63;;;20.30;99.90;23.60;101552.00;;;;5020227;28;20229;-72
2023/05/22 18:14:55;;;;;;;0.85;0.85;;;20.20;99.90;23.30;101553.00;;;;5021051;28;20189;-72
2023/05/22 18:17:22;;;;;;;2.00;1.90;;;20.10;99.90;23.50;101564.00;;;;5016236;28;20633;-72
2023/05/22 18:19:48;;;;;;;0.40;0.40;;;20.10;99.90;23.10;101557.00;;;;5018294;28;20229;-72
2023/05/22 18:22:14;;;;;;;0.20;0.20;;;19.90;99.90;23.60;101568.00;;;;5045488;28;20225;-72